Time;durP1;ratioP1;P1;durP2;ratioP2;P2;SDS_P1;SDS_P2;PMS_P1;PMS_P2;Temp;Humidity;BMP_temperature;BMP_pressure;BME280_temperature;BME280_humidity;BME280_pressure;Samples;Min_cycle;Max_cycle;Signal;HPM_P1;HPM_P2
2022/04/25 00:01:32;;;;;;;16.85;4.85;;;;;;;13.29;76.63;94298.50;5017248;28;20050;-71
2022/04/25 00:03:59;;;;;;;12.38;4.45;;;;;;;13.26;76.68;94293.81;5010167;28;20042;-71
2022/04/25 00:06:26;;;;;;;20.67;4.30;;;;;;;13.27;76.89;94300.59;5011456;28;20363;-71
2022/04/25 00:08:53;;;;;;;21.33;4.18;;;;;;;13.19;77.57;94305.28;5014114;28;20084;-71
2022/04/25 00:11:20;;;;;;;22.58;4.32;;;;;;;13.13;77.48;94316.81;5005254;28;20045;-71
2022/04/25 00:13:47;;;;;;;18.20;2.83;;;;;;;13.10;77.79;94312.06;5018512;28;20045;-71
2022/04/25 00:16:18;;;;;;;26.25;5.07;;;;;;;13.11;77.71;94316.28;5014545;28;20054;-71
2022/04/25 00:18:47;;;;;;;16.63;4.47;;;;;;;13.12;77.40;94314.44;5010827;28;20048;-71
2022/04/25 00:21:13;;;;;;;24.70;4.85;;;;;;;13.12;77.02;94304.75;5005012;28;20056;-71
2022/04/25 00:23:41;;;;;;;22.92;4.88;;;;;;;13.15;77.11;94306.09;5016129;28;20045;-71
2022/04/25 00:26:09;;;;;;;18.35;4.30;;;;;;;13.13;77.20;94310.78;5001524;28;20528;-72
2022/04/25 00:28:36;;;;;;;17.05;4.05;;;;;;;13.03;77.51;94301.09;5010016;28;20049;-72
2022/04/25 00:31:03;;;;;;;20.75;4.90;;;;;;;13.10;77.12;94301.63;5015937;28;20535;-71
2022/04/25 00:33:30;;;;;;;17.35;4.55;;;;;;;13.08;77.21;94314.16;5005521;28;20054;-71
2022/04/25 00:35:57;;;;;;;19.35;4.05;;;;;;;13.08;77.20;94308.94;5004296;28;20041;-71
2022/04/25 00:38:24;;;;;;;16.92;3.85;;;;;;;13.05;77.29;94308.69;5004712;28;20469;-71
2022/04/25 00:40:51;;;;;;;22.98;4.13;;;;;;;13.06;76.95;94316.25;5000680;28;20096;-72
2022/04/25 00:43:18;;;;;;;16.20;3.95;;;;;;;13.03;76.76;94311.53;4993427;28;20057;-72
2022/04/25 00:45:45;;;;;;;20.30;4.07;;;;;;;13.11;76.44;94318.13;4990756;28;20076;-72
2022/04/25 00:48:11;;;;;;;20.52;4.38;;;;;;;13.14;76.19;94317.56;5019804;28;20127;-72
2022/04/25 00:50:39;;;;;;;26.48;4.63;;;;;;;13.01;76.81;94300.56;5022442;28;20041;-72
2022/04/25 00:53:07;;;;;;;19.45;4.43;;;;;;;13.10;76.54;94322.53;5014355;28;20049;-71
2022/04/25 00:55:36;;;;;;;23.45;4.13;;;;;;;13.07;76.50;94302.16;5014172;28;20050;-72
2022/04/25 00:58:03;;;;;;;18.17;4.22;;;;;;;12.93;77.04;94286.19;5006049;28;20463;-72
2022/04/25 01:00:32;;;;;;;26.85;4.03;;;;;;;13.08;76.59;94319.41;4986233;28;20045;-72
2022/04/25 01:02:59;;;;;;;35.70;4.80;;;;;;;13.00;76.92;94310.25;5012611;28;20038;-72
2022/04/25 01:05:26;;;;;;;24.70;4.90;;;;;;;12.96;77.46;94300.56;5006767;28;20514;-72
2022/04/25 01:07:53;;;;;;;17.38;3.78;;;;;;;12.92;77.99;94304.72;5013688;28;20050;-72
2022/04/25 01:10:20;;;;;;;13.75;3.45;;;;;;;12.99;78.03;94305.28;4996269;28;20045;-72
2022/04/25 01:12:47;;;;;;;9.73;4.30;;;;;;;12.97;78.00;94296.91;5022059;28;20720;-72
2022/04/25 01:15:14;;;;;;;23.23;4.88;;;;;;;12.95;78.37;94299.00;5003545;28;20057;-72
2022/04/25 01:17:41;;;;;;;17.67;4.20;;;;;;;12.92;77.77;94295.06;5020702;28;20045;-72
2022/04/25 01:20:09;;;;;;;16.52;4.90;;;;;;;12.84;78.09;94286.94;5016647;28;20598;-72
2022/04/25 01:27:15;;;;;;;21.67;5.50;;;;;;;12.89;78.65;94295.59;4992252;28;20076;-72
2022/04/25 01:28:32;;;;;;;22.23;5.07;;;;;;;12.79;79.42;94288.50;5011454;28;20050;-72
2022/04/25 01:30:59;;;;;;;8.52;3.67;;;;;;;12.67;80.06;94269.63;5017591;28;20053;-72
2022/04/25 01:33:26;;;;;;;19.33;4.10;;;;;;;12.64;80.08;94262.34;4996845;28;20572;-72
2022/04/25 01:35:53;;;;;;;15.32;4.15;;;;;;;12.75;79.88;94269.16;4993526;28;20050;-72
2022/04/25 01:38:20;;;;;;;17.30;3.92;;;;;;;12.64;80.92;94262.34;5011880;28;20057;-72
2022/04/25 01:40:47;;;;;;;17.55;3.25;;;;;;;12.76;80.40;94265.47;5000303;28;20041;-72
2022/04/25 01:43:14;;;;;;;11.90;3.30;;;;;;;12.74;80.58;94266.78;4993705;28;20064;-72
2022/04/25 01:45:41;;;;;;;21.60;4.00;;;;;;;12.72;80.41;94248.75;4994005;28;20049;-72
2022/04/25 01:48:08;;;;;;;20.83;4.38;;;;;;;12.76;80.54;94255.03;5015091;28;20046;-72
2022/04/25 01:50:35;;;;;;;15.27;4.30;;;;;;;12.78;80.59;94252.16;5001103;28;20048;-72
2022/04/25 01:53:01;;;;;;;16.20;4.10;;;;;;;12.71;80.64;94231.53;5021890;28;20049;-71
2022/04/25 01:55:28;;;;;;;16.95;3.28;;;;;;;12.69;81.17;94227.59;5002284;28;20052;-72
2022/04/25 01:57:55;;;;;;;18.88;4.05;;;;;;;12.74;81.04;94230.22;5019033;28;20045;-72
2022/04/25 02:00:22;;;;;;;17.67;4.95;;;;;;;12.75;81.02;94222.13;5026995;28;20041;-72
2022/04/25 02:02:49;;;;;;;26.42;4.40;;;;;;;12.70;80.81;94214.28;5017844;28;20050;-71
2022/04/25 02:05:16;;;;;;;9.82;3.47;;;;;;;12.73;81.20;94224.22;5042567;28;20069;-71
2022/04/25 02:07:43;;;;;;;17.55;3.88;;;;;;;12.72;81.48;94238.31;5039042;28;20043;-71
2022/04/25 02:10:10;;;;;;;12.30;4.20;;;;;;;12.72;81.34;94233.06;5028059;28;20068;-72
2022/04/25 02:12:38;;;;;;;20.30;4.53;;;;;;;12.73;80.94;94234.66;5037117;28;20045;-72
2022/04/25 02:15:12;;;;;;;14.00;3.95;;;;;;;12.69;81.57;94228.34;5026358;28;20045;-72
2022/04/25 02:17:42;;;;;;;17.63;3.30;;;;;;;12.61;81.88;94231.50;5041248;28;20047;-72
2022/04/25 02:20:10;;;;;;;15.00;3.75;;;;;;;12.62;81.82;94222.59;5032969;28;20044;-72
2022/04/25 02:22:37;;;;;;;19.98;4.35;;;;;;;12.61;81.94;94221.03;5042764;28;20051;-72
2022/04/25 02:25:06;;;;;;;20.73;3.53;;;;;;;12.54;82.54;94210.06;5037856;28;20049;-73
2022/04/25 02:27:32;;;;;;;10.25;4.03;;;;;;;12.55;82.34;94222.06;5026353;28;20075;-72
2022/04/25 02:29:59;;;;;;;13.05;4.32;;;;;;;12.51;82.47;94221.78;5039292;28;20033;-72
2022/04/25 02:32:28;;;;;;;23.50;5.68;;;;;;;12.48;82.52;94227.53;5024987;28;20053;-72
2022/04/25 02:34:55;;;;;;;21.55;4.90;;;;;;;12.33;83.18;94220.44;5027391;28;20056;-72
2022/04/25 02:37:22;;;;;;;16.60;4.43;;;;;;;12.34;83.53;94221.25;5044813;28;20052;-72
2022/04/25 02:39:50;;;;;;;27.85;3.60;;;;;;;12.27;84.75;94226.69;5044689;28;20033;-72
2022/04/25 02:42:17;;;;;;;11.93;4.50;;;;;;;12.21;84.94;94225.88;5036379;28;20047;-72
2022/04/25 02:44:44;;;;;;;23.42;5.72;;;;;;;12.12;84.79;94203.13;5033156;28;20060;-72
2022/04/25 02:47:13;;;;;;;22.80;5.22;;;;;;;12.22;84.83;94229.28;5026725;28;20055;-72
2022/04/25 02:49:39;;;;;;;17.73;4.40;;;;;;;12.18;84.90;94221.16;5008852;28;20053;-72
2022/04/25 02:52:06;;;;;;;10.75;3.40;;;;;;;12.14;84.89;94211.50;5028139;28;20041;-72
2022/04/25 02:54:33;;;;;;;16.77;5.78;;;;;;;12.09;85.02;94206.25;5031246;28;20067;-73
2022/04/25 02:57:01;;;;;;;16.70;4.28;;;;;;;12.12;85.33;94214.38;5041553;28;20139;-72
2022/04/25 02:59:28;;;;;;;23.77;3.83;;;;;;;12.12;85.66;94218.78;5025359;28;20492;-72
2022/04/25 03:02:00;;;;;;;10.60;3.10;;;;;;;12.15;85.42;94211.22;5035574;28;20464;-72
2022/04/25 03:04:27;;;;;;;19.40;5.05;;;;;;;12.20;85.24;94200.03;5042286;28;20128;-73
2022/04/25 03:06:54;;;;;;;17.02;4.18;;;;;;;12.19;85.06;94198.44;5042106;28;20548;-72
2022/04/25 03:09:22;;;;;;;12.32;4.97;;;;;;;12.11;85.44;94191.91;5026177;28;20495;-72
2022/04/25 03:11:50;;;;;;;14.35;4.82;;;;;;;12.15;85.04;94186.97;5027463;28;20045;-72
2022/04/25 03:14:17;;;;;;;8.48;3.75;;;;;;;12.14;85.40;94204.44;5011910;28;20041;-72
2022/04/25 03:16:44;;;;;;;20.23;5.50;;;;;;;12.08;85.32;94202.84;5026710;28;20128;-72
2022/04/25 03:19:11;;;;;;;12.93;3.25;;;;;;;12.08;85.19;94202.06;5028781;28;20048;-73
2022/04/25 03:21:38;;;;;;;17.20;5.15;;;;;;;12.13;85.08;94204.69;5027070;28;20053;-72
2022/04/25 03:24:06;;;;;;;14.23;3.75;;;;;;;12.11;85.07;94206.78;5043968;28;20041;-72
2022/04/25 03:26:33;;;;;;;19.10;3.70;;;;;;;12.04;85.42;94202.56;5025861;28;20053;-73
2022/04/25 03:29:00;;;;;;;13.07;4.25;;;;;;;11.96;85.99;94190.03;5015319;28;20060;-72
2022/04/25 03:31:27;;;;;;;16.85;4.75;;;;;;;12.01;86.16;94197.88;5041241;28;20049;-73
2022/04/25 03:33:54;;;;;;;21.17;4.78;;;;;;;12.07;86.12;94205.72;5043692;28;20683;-73
2022/04/25 03:36:21;;;;;;;17.00;4.07;;;;;;;12.07;86.32;94205.72;5022080;28;20051;-72
2022/04/25 03:38:48;;;;;;;14.02;3.63;;;;;;;12.03;86.43;94208.84;5021110;28;20548;-73
2022/04/25 03:41:14;;;;;;;17.60;4.22;;;;;;;11.98;86.53;94211.44;5036544;28;20093;-73
2022/04/25 03:43:42;;;;;;;15.30;4.07;;;;;;;12.04;86.18;94239.09;5025010;28;20041;-73
2022/04/25 03:46:08;;;;;;;6.85;3.45;;;;;;;11.99;86.20;94225.25;5026735;28;20056;-73
2022/04/25 03:48:35;;;;;;;21.45;3.63;;;;;;;12.01;86.33;94234.41;5006392;28;20069;-72
2022/04/25 03:51:02;;;;;;;18.60;3.60;;;;;;;12.03;86.20;94232.34;5044123;28;20060;-73
2022/04/25 03:53:30;;;;;;;20.05;4.03;;;;;;;12.09;86.26;94240.19;5044846;28;20045;-73
2022/04/25 03:58:43;;;;;;;19.10;4.18;;;;;;;12.07;86.61;94231.84;5044698;28;20044;-73
2022/04/25 04:01:10;;;;;;;17.25;4.07;;;;;;;11.96;86.81;94220.56;5035032;28;20099;-72
2022/04/25 04:03:37;;;;;;;19.85;4.43;;;;;;;12.15;86.10;94233.94;5035973;28;20045;-72
2022/04/25 04:06:04;;;;;;;15.02;4.07;;;;;;;12.15;86.19;94233.94;5017994;28;20591;-72
2022/04/25 04:08:31;;;;;;;15.63;3.80;;;;;;;12.17;86.47;94235.28;5040975;28;20049;-73
2022/04/25 04:10:58;;;;;;;16.10;3.95;;;;;;;12.15;86.51;94226.09;5045145;28;20041;-73
2022/04/25 04:13:25;;;;;;;18.92;3.88;;;;;;;12.30;86.00;94231.41;5038349;28;20045;-72
2022/04/25 04:15:53;;;;;;;18.38;4.55;;;;;;;12.45;85.65;94243.72;5014198;28;20042;-72
2022/04/25 04:18:21;;;;;;;13.05;3.92;;;;;;;12.44;85.37;94231.69;5042224;28;20120;-72
2022/04/25 04:20:47;;;;;;;14.70;3.58;;;;;;;12.57;85.58;94246.13;5037019;28;20067;-72
2022/04/25 04:23:17;;;;;;;10.40;3.22;;;;;;;12.70;84.97;94250.84;5041750;28;20083;-72
2022/04/25 04:25:44;;;;;;;14.27;3.45;;;;;;;12.79;84.66;94244.06;5027333;28;20063;-72
2022/04/25 04:28:11;;;;;;;16.33;5.22;;;;;;;12.85;83.56;94238.84;5041369;28;20038;-72
2022/04/25 04:30:38;;;;;;;12.15;3.33;;;;;;;13.00;83.09;94260.56;5015695;28;20072;-73
2022/04/25 04:33:06;;;;;;;22.98;4.38;;;;;;;13.12;81.95;94260.31;5042324;28;20065;-72
2022/04/25 04:38:20;;;;;;;14.55;5.25;;;;;;;13.23;81.25;94253.25;5045162;28;20057;-72
2022/04/25 04:40:47;;;;;;;16.23;3.85;;;;;;;13.39;80.98;94264.53;5034393;28;20080;-73
2022/04/25 04:43:14;;;;;;;24.60;3.90;;;;;;;13.50;80.05;94268.72;5039273;28;20052;-73
2022/04/25 04:45:43;;;;;;;17.05;3.58;;;;;;;13.53;79.47;94260.34;5023676;28;20106;-73
2022/04/25 04:48:11;;;;;;;17.38;4.55;;;;;;;13.63;79.03;94261.38;5021585;28;20486;-73
2022/04/25 04:50:37;;;;;;;18.85;3.25;;;;;;;13.69;78.59;94270.81;5035878;28;20041;-72
2022/04/25 04:53:04;;;;;;;12.38;3.05;;;;;;;13.78;78.29;94269.22;5020833;28;20560;-72
2022/04/25 04:55:33;;;;;;;22.80;5.00;;;;;;;13.82;78.25;94270.25;5026309;28;20072;-71
2022/04/25 04:58:00;;;;;;;20.52;4.18;;;;;;;13.89;77.50;94260.31;5030636;28;20060;-71
2022/04/25 05:00:27;;;;;;;16.63;3.55;;;;;;;13.92;78.20;94259.78;5020592;28;20053;-72
2022/04/25 05:02:58;;;;;;;14.40;3.92;;;;;;;14.07;77.72;94276.50;4997157;28;20646;-72
2022/04/25 05:05:27;;;;;;;17.48;4.22;;;;;;;14.14;77.73;94274.41;5033941;28;20931;-72
2022/04/25 05:07:54;;;;;;;15.75;4.35;;;;;;;14.19;77.45;94274.38;5031434;28;20038;-71
2022/04/25 05:10:23;;;;;;;15.25;3.35;;;;;;;14.18;77.38;94267.56;5025886;28;20099;-72
2022/04/25 05:12:55;;;;;;;19.75;3.80;;;;;;;14.34;76.86;94271.69;5011635;28;20045;-71
2022/04/25 05:15:22;;;;;;;19.15;4.80;;;;;;;14.49;76.86;94277.94;5028452;28;20053;-71
2022/04/25 05:17:52;;;;;;;11.07;2.85;;;;;;;14.56;75.99;94278.44;5025069;28;20296;-71
2022/04/25 05:20:22;;;;;;;10.18;4.57;;;;;;;14.68;75.44;94281.56;5023003;28;20137;-71
2022/04/25 05:22:50;;;;;;;14.20;2.97;;;;;;;14.88;74.73;94295.63;5026024;28;20041;-71
2022/04/25 05:25:19;;;;;;;23.23;3.17;;;;;;;14.97;74.57;94293.97;5027098;28;20040;-72
2022/04/25 05:27:49;;;;;;;13.20;3.17;;;;;;;15.06;74.13;94292.34;5029455;28;20056;-72
2022/04/25 05:30:17;;;;;;;24.92;4.35;;;;;;;15.24;74.13;94305.91;5027018;28;20045;-71
2022/04/25 05:32:47;;;;;;;18.80;4.88;;;;;;;15.37;73.82;94296.63;5023572;28;20041;-71
2022/04/25 05:35:16;;;;;;;12.55;4.25;;;;;;;15.46;72.77;94306.25;5026824;28;20132;-72
2022/04/25 05:37:44;;;;;;;22.58;3.88;;;;;;;15.57;73.03;94308.81;5035480;28;20048;-71
2022/04/25 05:40:14;;;;;;;16.85;4.55;;;;;;;15.66;71.69;94296.66;5016479;28;20553;-72
2022/04/25 05:42:41;;;;;;;14.70;3.83;;;;;;;15.70;71.60;94305.56;5032497;28;20080;-72
2022/04/25 05:45:10;;;;;;;15.27;3.50;;;;;;;15.75;71.82;94291.63;5011737;28;20057;-72
2022/04/25 05:47:37;;;;;;;21.52;4.68;;;;;;;15.86;71.07;94293.09;5021697;28;20052;-71
2022/04/25 05:53:12;;;;;;;18.42;4.15;;;;;;;16.06;68.81;94300.00;4949776;28;20627;-73
2022/04/25 05:55:39;;;;;;;21.17;3.45;;;;;;;16.17;69.35;94288.34;4931881;28;20053;-72
2022/04/25 05:58:06;;;;;;;20.38;3.70;;;;;;;16.35;68.96;94289.47;4970919;28;20098;-73
2022/04/25 06:00:34;;;;;;;16.88;3.55;;;;;;;16.53;67.96;94295.03;5020083;28;20048;-73
2022/04/25 06:03:02;;;;;;;9.07;2.80;;;;;;;16.69;67.51;94299.06;5024000;28;20041;-72
2022/04/25 06:05:29;;;;;;;11.57;2.97;;;;;;;16.81;65.50;94293.38;5036901;28;20048;-73
2022/04/25 06:07:56;;;;;;;11.25;2.83;;;;;;;16.96;64.51;94301.13;5019155;28;20092;-73
2022/04/25 06:10:25;;;;;;;14.98;3.75;;;;;;;17.06;63.80;94271.25;5012507;28;20053;-72
2022/04/25 06:12:53;;;;;;;20.02;3.65;;;;;;;17.28;63.80;94289.06;5024143;28;20041;-73
2022/04/25 06:15:24;;;;;;;13.00;2.72;;;;;;;17.55;63.14;94285.00;5019622;28;20046;-73
2022/04/25 06:17:54;;;;;;;18.60;2.97;;;;;;;17.70;61.18;94290.03;5006451;28;20063;-73
2022/04/25 06:20:24;;;;;;;17.63;3.50;;;;;;;17.83;61.13;94285.09;5017935;28;20041;-73
2022/04/25 06:22:56;;;;;;;19.05;3.80;;;;;;;17.98;59.32;94295.38;5018985;28;20116;-72
2022/04/25 06:25:25;;;;;;;12.27;3.85;;;;;;;18.07;58.62;94296.25;5009025;28;20061;-73
2022/04/25 06:27:52;;;;;;;16.35;3.97;;;;;;;18.17;58.59;94297.16;5021517;28;20042;-73
2022/04/25 06:30:24;;;;;;;17.85;2.92;;;;;;;18.33;56.94;94296.59;5017408;28;20061;-72
2022/04/25 06:32:53;;;;;;;26.17;3.38;;;;;;;18.40;55.58;94296.22;5018515;28;20041;-73
2022/04/25 06:35:20;;;;;;;16.17;4.38;;;;;;;18.59;55.09;94303.25;5023386;28;20055;-72
2022/04/25 06:37:48;;;;;;;14.70;3.15;;;;;;;18.68;54.94;94290.91;5011522;28;20591;-72
2022/04/25 06:40:16;;;;;;;14.98;3.15;;;;;;;18.68;55.13;94283.78;5024530;28;20046;-72
2022/04/25 06:42:43;;;;;;;11.82;3.33;;;;;;;18.68;54.02;94290.91;5023131;28;20046;-72
2022/04/25 06:45:10;;;;;;;16.58;3.00;;;;;;;18.72;53.21;94302.44;5029293;28;20046;-72
2022/04/25 06:47:39;;;;;;;15.45;3.70;;;;;;;18.78;51.89;94305.75;5035447;28;20041;-72
2022/04/25 06:50:06;;;;;;;18.92;3.58;;;;;;;18.83;51.74;94298.53;5021668;28;20034;-72
2022/04/25 06:52:33;;;;;;;21.42;4.53;;;;;;;18.68;52.19;94296.19;5035514;28;20060;-72
2022/04/25 06:55:00;;;;;;;15.32;3.90;;;;;;;18.62;53.14;94305.25;5025195;28;20049;-72
2022/04/25 06:57:30;;;;;;;14.13;3.50;;;;;;;18.43;53.88;94279.78;5016913;28;20188;-72
2022/04/25 06:59:57;;;;;;;21.25;2.83;;;;;;;18.70;52.53;94305.38;5019019;28;20107;-72
2022/04/25 07:02:47;;;;;;;21.75;4.15;;;;;;;18.83;53.33;94303.81;5031122;28;20034;-73
2022/04/25 07:05:14;;;;;;;15.55;4.80;;;;;;;19.10;52.70;94303.00;5036008;28;21072;-72
2022/04/25 07:07:42;;;;;;;15.00;3.72;;;;;;;19.29;52.52;94305.47;5028997;28;20048;-72
2022/04/25 07:10:09;;;;;;;14.02;2.78;;;;;;;19.06;51.67;94290.69;5040763;28;20434;-72
2022/04/25 07:12:36;;;;;;;15.32;3.20;;;;;;;19.25;51.50;94309.81;5014990;28;20037;-72
2022/04/25 07:15:03;;;;;;;24.95;3.72;;;;;;;19.37;51.60;94300.56;5025941;28;20111;-72
2022/04/25 07:17:30;;;;;;;26.38;4.00;;;;;;;19.46;51.22;94304.06;5022938;28;20057;-73
2022/04/25 07:19:57;;;;;;;18.17;4.30;;;;;;;19.61;49.57;94306.34;5012392;28;20058;-73
2022/04/25 07:30:40;;;;;;;21.58;5.30;;;;;;;20.12;46.92;94303.56;5030994;28;20051;-74
2022/04/25 07:33:07;;;;;;;24.75;3.67;;;;;;;20.14;46.97;94301.41;5034351;28;20534;-74
2022/04/25 07:35:36;;;;;;;24.55;8.98;;;;;;;20.11;45.71;94291.44;5019242;28;20051;-73
2022/04/25 07:38:03;;;;;;;29.05;6.03;;;;;;;20.11;45.26;94296.72;5032969;28;20033;-74
2022/04/25 07:40:34;;;;;;;18.38;3.85;;;;;;;20.35;44.08;94297.13;5025414;28;20048;-73
2022/04/25 07:43:03;;;;;;;33.75;3.97;;;;;;;20.38;43.41;94279.88;5022868;28;20822;-73
2022/04/25 07:45:30;;;;;;;14.75;4.55;;;;;;;20.58;42.12;94291.75;5023167;28;20060;-74
2022/04/25 07:47:57;;;;;;;18.60;2.78;;;;;;;20.66;43.53;94291.03;5018723;28;20057;-73
2022/04/25 07:50:25;;;;;;;19.10;3.53;;;;;;;20.73;42.42;94286.06;5022818;28;20061;-74
2022/04/25 07:52:52;;;;;;;21.10;3.40;;;;;;;20.88;41.27;94297.31;5013586;28;20037;-73
2022/04/25 07:55:19;;;;;;;12.73;2.65;;;;;;;20.90;40.69;94295.13;5024725;28;20120;-73
2022/04/25 07:57:46;;;;;;;24.15;3.95;;;;;;;20.93;41.36;94283.94;5029566;28;20141;-73
2022/04/25 08:00:14;;;;;;;24.70;3.10;;;;;;;21.10;41.24;94294.53;4989876;28;20045;-72
2022/04/25 08:02:41;;;;;;;16.67;3.25;;;;;;;21.02;42.33;94271.50;5028788;28;20745;-73
2022/04/25 08:05:09;;;;;;;11.40;2.60;;;;;;;21.15;41.90;94275.84;5020458;28;20057;-74
2022/04/25 08:07:36;;;;;;;18.35;3.17;;;;;;;21.20;40.69;94288.16;5018703;28;20073;-72
2022/04/25 08:10:05;;;;;;;15.73;3.35;;;;;;;21.47;40.94;94281.81;5015938;28;20526;-73
2022/04/25 08:18:06;;;;;;;26.13;3.05;;;;;;;21.64;38.51;94275.69;5020209;28;20068;-73
2022/04/25 08:20:36;;;;;;;10.65;2.40;;;;;;;21.79;39.83;94261.19;5010927;28;20871;-73
2022/04/25 08:23:09;;;;;;;25.55;3.38;;;;;;;21.81;41.10;94268.84;5025224;28;20037;-73
2022/04/25 08:25:38;;;;;;;18.58;3.03;;;;;;;22.09;40.14;94263.91;5023691;28;20033;-73
2022/04/25 08:28:05;;;;;;;17.05;3.22;;;;;;;22.35;39.01;94260.44;5036166;28;20052;-73
2022/04/25 08:30:33;;;;;;;24.20;2.63;;;;;;;22.50;38.04;94268.59;5037564;28;20037;-73
2022/04/25 08:33:00;;;;;;;13.93;2.85;;;;;;;22.23;35.99;94253.09;5013484;28;20038;-73
2022/04/25 08:35:28;;;;;;;17.60;2.58;;;;;;;22.17;35.59;94271.06;5014284;28;20041;-73
2022/04/25 08:37:55;;;;;;;18.50;3.55;;;;;;;22.29;35.38;94268.56;5013455;28;20047;-73
2022/04/25 08:40:23;;;;;;;14.38;2.75;;;;;;;22.32;35.09;94265.25;5023840;28;20045;-73
2022/04/25 08:42:49;;;;;;;19.60;3.38;;;;;;;22.30;33.33;94270.09;5021143;28;20041;-73
2022/04/25 08:45:19;;;;;;;28.17;2.80;;;;;;;22.26;33.50;94263.88;5023370;28;20076;-73
2022/04/25 08:47:47;;;;;;;16.98;2.65;;;;;;;22.54;33.96;94263.44;5020824;28;20044;-73
2022/04/25 08:50:17;;;;;;;17.33;2.90;;;;;;;22.71;35.45;94268.66;5019979;28;20061;-73
2022/04/25 08:52:46;;;;;;;20.73;2.83;;;;;;;22.66;35.56;94250.25;5025467;28;20499;-73
2022/04/25 08:55:15;;;;;;;15.43;3.47;;;;;;;22.95;34.37;94264.59;5024263;28;20054;-73
2022/04/25 08:57:46;;;;;;;31.08;3.08;;;;;;;22.99;33.52;94262.84;5032429;28;20848;-73
2022/04/25 09:00:15;;;;;;;22.52;2.80;;;;;;;22.84;33.10;94255.47;5014958;28;20049;-73
2022/04/25 09:02:49;;;;;;;26.10;3.92;;;;;;;22.87;33.13;94260.16;5019285;28;20140;-73
2022/04/25 09:05:17;;;;;;;16.65;3.55;;;;;;;23.00;33.63;94261.00;5040192;28;20041;-73
2022/04/25 09:07:44;;;;;;;24.25;3.50;;;;;;;23.14;31.84;94274.03;5009695;28;20041;-73
2022/04/25 09:10:15;;;;;;;24.70;2.83;;;;;;;22.99;32.84;94257.53;4994068;28;20128;-74
2022/04/25 09:12:46;;;;;;;26.10;2.78;;;;;;;23.09;33.34;94245.78;5006784;28;20132;-73
2022/04/25 09:15:22;;;;;;;18.98;2.85;;;;;;;22.87;32.45;94257.47;5017727;28;20033;-73
2022/04/25 09:17:55;;;;;;;12.90;2.30;;;;;;;23.02;31.66;94267.53;5032807;28;20065;-72
2022/04/25 09:20:24;;;;;;;18.05;3.78;;;;;;;23.04;31.99;94254.72;5039310;28;20059;-72
2022/04/25 09:22:52;;;;;;;17.30;2.60;;;;;;;23.08;31.96;94250.34;5037507;28;20276;-72
2022/04/25 09:25:20;;;;;;;20.35;3.15;;;;;;;23.32;31.74;94248.91;5028682;28;20431;-73
2022/04/25 09:28:09;;;;;;;35.05;2.97;;;;;;;23.61;30.94;94255.22;5017600;28;20532;-72
2022/04/25 09:30:37;;;;;;;20.75;2.80;;;;;;;24.00;29.14;94253.09;5038854;28;20125;-72
2022/04/25 09:33:21;;;;;;;13.18;2.30;;;;;;;24.05;27.88;94252.91;5027961;28;20110;-72
2022/04/25 09:35:56;;;;;;;18.25;3.33;;;;;;;24.11;28.22;94235.63;5007820;28;20124;-71
2022/04/25 09:38:31;;;;;;;22.95;3.33;;;;;;;24.32;29.15;94234.75;5037522;28;20453;-71
2022/04/25 09:41:00;;;;;;;34.08;2.20;;;;;;;24.48;26.47;94235.63;5027321;28;20048;-71
2022/04/25 09:43:32;;;;;;;23.75;2.70;;;;;;;24.66;25.90;94227.44;5020400;28;20037;-72
2022/04/25 09:46:04;;;;;;;10.85;1.85;;;;;;;24.73;24.85;94238.31;5032070;28;20593;-71
2022/04/25 09:48:32;;;;;;;29.75;2.55;;;;;;;24.54;26.09;94226.34;5020333;28;20052;-72
2022/04/25 09:51:07;;;;;;;15.35;2.72;;;;;;;23.95;26.20;94226.72;5018960;28;20056;-72
2022/04/25 09:53:54;;;;;;;18.25;3.88;;;;;;;23.81;25.42;94233.13;5017409;28;20056;-74
2022/04/25 09:56:24;;;;;;;30.75;4.32;;;;;;;23.71;25.09;94236.16;5033675;28;20593;-74
2022/04/25 09:59:01;;;;;;;13.43;2.88;;;;;;;23.95;26.41;94248.00;5032278;28;20052;-73
2022/04/25 10:01:30;;;;;;;23.95;4.28;;;;;;;24.37;26.27;94221.22;5033987;28;20510;-71
2022/04/25 10:03:58;;;;;;;37.80;4.25;;;;;;;24.19;26.44;94216.13;5013409;28;20128;-72
2022/04/25 10:06:27;;;;;;;13.80;2.60;;;;;;;24.38;26.20;94217.44;5033848;28;20879;-71
2022/04/25 10:08:55;;;;;;;12.63;2.97;;;;;;;24.47;26.28;94215.47;5027693;28;20045;-72
2022/04/25 10:11:24;;;;;;;8.50;1.55;;;;;;;24.42;25.24;94218.34;5038757;28;20052;-71
2022/04/25 10:13:52;;;;;;;45.75;12.10;;;;;;;24.39;25.27;94203.03;5025510;28;20537;-72
2022/04/25 10:16:20;;;;;;;27.40;8.20;;;;;;;24.87;25.51;94224.66;5030782;28;20052;-71
2022/04/25 10:18:48;;;;;;;8.13;1.27;;;;;;;24.93;23.74;94221.41;5016818;28;20048;-72
2022/04/25 10:21:15;;;;;;;13.70;2.13;;;;;;;24.74;24.84;94207.91;5036664;28;20140;-72
2022/04/25 10:23:44;;;;;;;14.90;1.75;;;;;;;24.47;25.50;94220.00;5037615;28;20041;-71
2022/04/25 10:26:11;;;;;;;11.15;2.17;;;;;;;23.95;24.70;94210.75;5013005;28;20437;-71
2022/04/25 10:28:46;;;;;;;13.93;1.70;;;;;;;24.01;24.39;94214.78;5026021;28;20054;-71
2022/04/25 10:31:30;;;;;;;14.20;1.77;;;;;;;23.74;24.38;94211.59;5035729;28;20045;-72
2022/04/25 10:33:59;;;;;;;5.38;1.42;;;;;;;23.79;24.81;94214.06;5015836;28;20117;-72
2022/04/25 10:36:38;;;;;;;16.38;1.55;;;;;;;24.17;24.56;94212.25;5013037;28;20863;-73
2022/04/25 10:39:21;;;;;;;13.73;1.50;;;;;;;24.23;22.95;94224.97;5028774;28;20088;-72
2022/04/25 10:44:44;;;;;;;14.18;2.85;;;;;;;24.31;22.93;94218.00;5029580;28;20075;-73
2022/04/25 10:47:18;;;;;;;8.95;1.20;;;;;;;24.54;22.65;94218.38;4994708;28;20050;-73
2022/04/25 10:49:46;;;;;;;;;;;;;;;24.69;23.08;94216.13;5018370;28;20525;-73
2022/04/25 10:52:32;;;;;;;12.73;1.27;;;;;;;24.68;23.28;94227.88;5005010;28;19929;-74
2022/04/25 10:55:19;;;;;;;7.30;1.50;;;;;;;24.11;21.58;94206.38;5022383;28;20502;-74
2022/04/25 10:58:01;;;;;;;15.25;1.70;;;;;;;24.47;21.93;94220.78;5011197;28;20682;-73
2022/04/25 11:00:40;;;;;;;13.80;1.55;;;;;;;24.92;21.52;94227.84;5032434;28;20052;-73
2022/04/25 11:03:11;;;;;;;15.65;1.55;;;;;;;24.35;21.63;94212.81;5027100;28;20130;-73
2022/04/25 11:05:40;;;;;;;12.80;2.30;;;;;;;24.11;23.05;94209.03;5013735;28;20453;-73
2022/04/25 11:08:19;;;;;;;18.75;1.85;;;;;;;23.94;22.21;94219.88;5000401;28;20049;-74
2022/04/25 11:11:05;;;;;;;16.60;3.03;;;;;;;24.43;21.51;94234.00;5034626;28;20041;-73
2022/04/25 11:13:51;;;;;;;16.05;1.98;;;;;;;24.65;20.99;94221.34;5029840;28;20061;-73
2022/04/25 11:16:24;;;;;;;8.88;1.77;;;;;;;25.22;21.57;94211.53;5037719;28;20492;-73
2022/04/25 11:19:19;;;;;;;11.63;1.20;;;;;;;25.06;21.60;94218.72;5012396;28;20466;-72
2022/04/25 11:21:53;;;;;;;15.13;1.45;;;;;;;25.35;20.54;94213.09;5035315;28;20057;-72
2022/04/25 11:24:33;;;;;;;4.28;1.02;;;;;;;25.18;20.48;94210.69;5019889;28;20132;-72
2022/04/25 11:27:02;;;;;;;8.20;2.33;;;;;;;25.08;20.97;94190.59;5017764;28;20065;-73
2022/04/25 11:29:30;;;;;;;11.57;2.55;;;;;;;25.73;20.85;94225.13;5033629;28;20064;-72
2022/04/25 11:32:22;;;;;;;13.00;1.95;;;;;;;25.68;19.97;94201.38;5013488;28;20128;-70
2022/04/25 11:34:49;;;;;;;20.60;1.60;;;;;;;25.85;19.61;94200.25;5037477;28;20734;-71
2022/04/25 11:37:18;;;;;;;12.57;2.53;;;;;;;26.48;19.95;94220.84;5015742;28;20081;-72
2022/04/25 11:40:03;;;;;;;11.80;2.30;;;;;;;26.59;20.46;94215.75;5031087;28;20449;-70
2022/04/25 11:42:32;;;;;;;8.20;1.67;;;;;;;26.66;22.89;94204.50;5033291;28;20061;-71
2022/04/25 11:45:01;;;;;;;24.13;3.15;;;;;;;26.77;22.21;94226.84;5037489;28;20041;-71
2022/04/25 11:47:32;;;;;;;6.22;2.40;;;;;;;26.57;21.85;94223.34;5038980;28;20049;-71
2022/04/25 11:50:01;;;;;;;9.93;1.08;;;;;;;26.61;21.78;94207.44;5019379;28;20053;-71
2022/04/25 11:52:29;;;;;;;11.18;1.50;;;;;;;26.89;21.77;94224.06;5032961;28;20055;-72
2022/04/25 11:54:56;;;;;;;14.35;1.38;;;;;;;27.15;22.11;94220.00;5032092;28;20144;-72
2022/04/25 11:57:24;;;;;;;11.52;0.93;;;;;;;27.08;22.29;94219.88;5038475;28;20574;-72
2022/04/25 12:00:14;;;;;;;8.82;2.00;;;;;;;27.07;21.72;94235.13;5032539;28;20053;-71
2022/04/25 12:02:42;;;;;;;17.00;3.13;;;;;;;27.13;21.77;94222.25;5012307;28;20041;-71
2022/04/25 12:05:10;;;;;;;10.23;1.90;;;;;;;27.47;20.85;94219.91;5011031;28;20051;-71